createdAt,value
2022-09-30T00:01:33.938Z,29.30
2022-09-30T00:04:01.163Z,29.13
2022-09-30T00:06:29.672Z,30.23
2022-09-30T00:08:57.801Z,28.30
2022-09-30T00:11:27.249Z,29.20
2022-09-30T00:13:53.746Z,30.02
2022-09-30T00:16:22.607Z,29.38
2022-09-30T00:18:50.131Z,28.45
2022-09-30T00:21:17.657Z,26.98
2022-09-30T00:23:45.149Z,31.95
2022-09-30T00:26:15.291Z,31.00
2022-09-30T00:28:43.886Z,27.25
2022-09-30T00:31:16.076Z,27.52
2022-09-30T00:33:43.363Z,28.23
2022-09-30T00:36:11.248Z,27.35
2022-09-30T00:38:37.719Z,28.95
2022-09-30T00:41:04.473Z,30.08
2022-09-30T00:43:53.279Z,26.35
2022-09-30T00:46:44.878Z,28.65
2022-09-30T00:49:19.007Z,26.48
2022-09-30T00:51:50.484Z,30.25
2022-09-30T00:54:21.840Z,28.02
2022-09-30T00:56:56.700Z,26.00
2022-09-30T00:59:27.215Z,28.15
2022-09-30T01:01:54.302Z,31.67
2022-09-30T01:04:26.073Z,27.70
2022-09-30T01:06:52.903Z,26.13
2022-09-30T01:09:20.166Z,30.00
2022-09-30T01:11:48.017Z,30.67
2022-09-30T01:14:21.447Z,28.83
2022-09-30T01:16:59.220Z,29.45
2022-09-30T01:19:28.659Z,28.15
2022-09-30T01:22:13.528Z,28.15
2022-09-30T01:25:01.407Z,27.50
2022-09-30T01:27:40.651Z,30.25
2022-09-30T01:30:22.532Z,28.40
2022-09-30T01:33:00.947Z,28.65
2022-09-30T01:35:57.174Z,27.27
2022-09-30T01:38:28.590Z,26.55
2022-09-30T01:41:05.735Z,28.33
2022-09-30T01:44:17.658Z,30.90
2022-09-30T01:46:51.751Z,29.20
2022-09-30T01:49:47.410Z,26.63
2022-09-30T01:52:19.792Z,26.38
2022-09-30T01:55:06.858Z,24.73
2022-09-30T01:57:44.976Z,27.25
2022-09-30T02:00:13.141Z,29.42
2022-09-30T02:02:58.232Z,28.95
2022-09-30T02:05:30.790Z,26.08
2022-09-30T02:08:26.431Z,28.38
2022-09-30T02:10:59.074Z,22.50
2022-09-30T02:13:39.975Z,27.50
2022-09-30T02:16:13.443Z,31.38
2022-09-30T02:18:54.125Z,27.15
2022-09-30T02:21:26.187Z,25.55
2022-09-30T02:23:59.471Z,28.48
2022-09-30T02:26:30.142Z,25.00
2022-09-30T02:29:06.388Z,26.75
2022-09-30T02:31:37.828Z,23.10
2022-09-30T02:34:08.657Z,24.08
2022-09-30T02:36:40.770Z,24.35
2022-09-30T02:39:16.250Z,27.02
2022-09-30T02:41:52.013Z,28.42
2022-09-30T02:44:19.646Z,25.02
2022-09-30T02:47:16.217Z,24.48
2022-09-30T02:49:56.872Z,23.67
2022-09-30T02:52:40.405Z,24.20
2022-09-30T02:55:14.540Z,23.48
2022-09-30T02:57:46.734Z,25.95
2022-09-30T03:00:13.864Z,21.65
2022-09-30T03:02:41.447Z,24.45
2022-09-30T03:05:09.611Z,23.08
2022-09-30T03:07:36.687Z,22.75
2022-09-30T03:10:12.816Z,24.58
2022-09-30T03:13:05.066Z,25.75
2022-09-30T03:15:59.360Z,23.80
2022-09-30T03:18:48.001Z,31.67
2022-09-30T03:21:36.523Z,23.25
2022-09-30T03:24:27.478Z,23.95
2022-09-30T03:27:18.861Z,24.20
2022-09-30T03:29:57.961Z,28.23
2022-09-30T03:32:33.365Z,23.83
2022-09-30T03:35:03.926Z,25.80
2022-09-30T03:37:45.412Z,23.63
2022-09-30T03:40:27.630Z,26.10
2022-09-30T03:43:22.999Z,21.38
2022-09-30T03:46:02.165Z,23.95
2022-09-30T03:48:31.905Z,22.27
2022-09-30T03:51:00.068Z,24.23
2022-09-30T03:53:28.500Z,25.05
2022-09-30T03:55:55.104Z,23.13
2022-09-30T03:58:23.509Z,25.20
2022-09-30T04:00:52.987Z,24.80
2022-09-30T04:03:21.815Z,25.27
2022-09-30T04:05:49.031Z,24.13
2022-09-30T04:08:16.179Z,25.08
2022-09-30T04:10:46.275Z,23.77
2022-09-30T04:13:12.944Z,25.80
2022-09-30T04:15:40.544Z,24.92
2022-09-30T04:18:07.496Z,22.75
2022-09-30T04:20:33.951Z,26.02
2022-09-30T04:23:01.509Z,22.45
2022-09-30T04:25:28.696Z,27.17
2022-09-30T04:27:55.822Z,26.63
2022-09-30T04:30:25.566Z,27.85
2022-09-30T04:32:53.811Z,24.45
2022-09-30T04:35:20.430Z,25.33
2022-09-30T04:37:47.999Z,23.63
2022-09-30T04:40:16.316Z,23.20
2022-09-30T04:42:43.046Z,24.65
2022-09-30T04:45:11.480Z,20.45
2022-09-30T04:47:37.898Z,32.72
2022-09-30T04:50:05.604Z,26.02
2022-09-30T04:52:32.032Z,24.48
2022-09-30T04:54:58.730Z,29.10
2022-09-30T04:57:25.439Z,25.40
2022-09-30T04:59:51.933Z,26.63
2022-09-30T05:02:18.421Z,31.70
2022-09-30T05:04:45.015Z,30.15
2022-09-30T05:07:11.663Z,25.83
2022-09-30T05:09:38.191Z,26.35
2022-09-30T05:12:04.740Z,31.40
2022-09-30T05:14:31.247Z,24.23
2022-09-30T05:16:57.702Z,25.27
2022-09-30T05:19:24.395Z,23.38
2022-09-30T05:21:52.044Z,22.00
2022-09-30T05:24:18.705Z,24.80
2022-09-30T05:26:45.171Z,25.73
2022-09-30T05:29:11.678Z,25.50
2022-09-30T05:31:38.223Z,26.63
2022-09-30T05:34:04.792Z,28.52
2022-09-30T05:36:31.204Z,23.20
2022-09-30T05:38:57.627Z,24.88
2022-09-30T05:41:24.452Z,22.90
2022-09-30T05:43:51.188Z,25.83
2022-09-30T05:46:19.372Z,24.13
2022-09-30T05:48:46.842Z,26.13
2022-09-30T05:51:13.789Z,25.88
2022-09-30T05:53:41.197Z,27.33
2022-09-30T05:56:09.243Z,29.33
2022-09-30T05:58:37.691Z,30.75
2022-09-30T06:01:13.211Z,32.13
2022-09-30T06:03:41.183Z,29.27
2022-09-30T06:06:07.837Z,32.70
2022-09-30T06:08:34.689Z,29.80
2022-09-30T06:11:01.206Z,28.88
2022-09-30T06:13:28.461Z,31.30
2022-09-30T06:15:59.386Z,29.10
2022-09-30T06:18:27.443Z,29.00
2022-09-30T06:21:02.011Z,25.02
2022-09-30T06:23:32.684Z,28.02
2022-09-30T06:25:59.122Z,27.08
2022-09-30T06:28:25.884Z,27.35
2022-09-30T06:30:52.283Z,25.35
2022-09-30T06:33:18.854Z,27.20
2022-09-30T06:35:47.365Z,28.10
2022-09-30T06:38:17.308Z,30.17
2022-09-30T06:40:44.810Z,27.00
2022-09-30T06:43:11.575Z,39.40
2022-09-30T06:45:38.415Z,25.98
2022-09-30T06:48:08.721Z,30.92
2022-09-30T06:50:36.032Z,27.33
2022-09-30T06:53:08.320Z,28.10
2022-09-30T06:55:39.259Z,27.10
2022-09-30T06:58:14.556Z,29.52
2022-09-30T07:03:15.728Z,32.95
2022-09-30T07:05:42.136Z,29.75
2022-09-30T07:08:10.582Z,34.80
2022-09-30T07:10:38.140Z,29.05
2022-09-30T07:13:04.601Z,34.75
2022-09-30T07:15:31.110Z,31.65
2022-09-30T07:17:57.611Z,39.13
2022-09-30T07:20:24.645Z,36.47
2022-09-30T07:22:51.255Z,34.67
2022-09-30T07:25:18.024Z,29.38
2022-09-30T07:27:44.920Z,28.80
2022-09-30T07:30:18.111Z,35.75
2022-09-30T07:32:50.092Z,29.48
2022-09-30T07:35:16.660Z,34.17
2022-09-30T07:37:43.107Z,36.65
2022-09-30T07:40:10.030Z,40.00
2022-09-30T07:42:45.363Z,33.38
2022-09-30T07:45:19.212Z,32.03
2022-09-30T07:47:49.656Z,35.92
2022-09-30T07:50:19.137Z,16.80
2022-09-30T07:52:45.689Z,24.52
2022-09-30T07:55:12.170Z,34.90
2022-09-30T07:57:38.573Z,27.45
2022-09-30T08:00:29.761Z,31.60
2022-09-30T08:02:53.343Z,33.55
2022-09-30T08:05:19.756Z,44.83
2022-09-30T08:07:46.216Z,36.03
2022-09-30T08:10:12.749Z,38.53
2022-09-30T08:12:39.173Z,26.60
2022-09-30T08:15:09.557Z,18.98
2022-09-30T08:17:36.011Z,36.92
2022-09-30T08:20:02.481Z,33.83
2022-09-30T08:22:28.896Z,32.05
2022-09-30T08:24:55.331Z,7.47
2022-09-30T08:27:21.831Z,34.85
2022-09-30T08:29:59.119Z,22.05
2022-09-30T08:32:30.587Z,24.75
2022-09-30T08:34:57.024Z,21.90
2022-09-30T08:37:24.114Z,15.05
2022-09-30T08:39:50.625Z,19.48
2022-09-30T08:42:42.470Z,23.85
2022-09-30T08:45:35.907Z,37.50
2022-09-30T08:48:08.919Z,18.90
2022-09-30T08:50:46.863Z,32.92
2022-09-30T08:53:24.197Z,31.00
2022-09-30T08:55:54.505Z,29.63
2022-09-30T08:58:28.515Z,13.82
2022-09-30T09:00:59.333Z,23.38
2022-09-30T09:03:29.779Z,14.43
2022-09-30T09:05:56.607Z,13.85
2022-09-30T09:08:26.076Z,29.00
2022-09-30T09:11:07.329Z,27.35
2022-09-30T09:14:00.716Z,24.95
2022-09-30T09:16:30.174Z,15.25
2022-09-30T09:19:05.674Z,32.75
2022-09-30T09:21:44.176Z,17.15
2022-09-30T09:24:21.109Z,14.18
2022-09-30T09:26:49.018Z,15.35
2022-09-30T09:29:48.168Z,13.38
2022-09-30T09:32:17.716Z,12.63
2022-09-30T09:34:50.572Z,23.30
2022-09-30T09:38:03.167Z,23.38
2022-09-30T09:41:23.822Z,12.52
2022-09-30T09:43:55.745Z,21.70
2022-09-30T09:46:29.516Z,20.23
2022-09-30T09:49:28.300Z,7.97
2022-09-30T09:52:11.619Z,18.17
2022-09-30T09:54:51.292Z,20.55
2022-09-30T09:57:24.768Z,23.95
2022-09-30T10:00:25.167Z,21.58
2022-09-30T10:03:01.996Z,8.88
2022-09-30T10:05:30.240Z,14.73
2022-09-30T10:08:22.947Z,8.77
2022-09-30T10:11:20.586Z,15.52
2022-09-30T10:13:47.337Z,7.05
2022-09-30T10:16:25.815Z,13.40
2022-09-30T10:18:52.464Z,13.57
2022-09-30T10:21:24.581Z,10.07
2022-09-30T10:23:51.146Z,14.02
2022-09-30T10:26:24.207Z,16.73
2022-09-30T10:28:56.452Z,5.70
2022-09-30T10:31:36.420Z,16.10
2022-09-30T10:34:14.743Z,14.23
2022-09-30T10:36:43.398Z,9.85
2022-09-30T10:39:26.755Z,10.70
2022-09-30T10:42:08.542Z,15.07
2022-09-30T10:44:46.935Z,16.00
2022-09-30T10:47:18.180Z,19.67
2022-09-30T10:49:59.771Z,7.60
2022-09-30T10:52:32.404Z,8.57
2022-09-30T10:55:09.083Z,8.50
2022-09-30T10:57:40.332Z,18.88
2022-09-30T11:00:14.778Z,18.88
2022-09-30T11:02:53.170Z,14.13
2022-09-30T11:05:33.711Z,11.05
2022-09-30T11:08:18.420Z,9.98
2022-09-30T11:11:07.212Z,12.80
2022-09-30T11:13:57.377Z,14.10
2022-09-30T11:16:36.088Z,13.45
2022-09-30T11:19:05.579Z,12.50
2022-09-30T11:21:54.033Z,9.25
2022-09-30T11:24:38.310Z,9.75
2022-09-30T11:27:04.705Z,6.05
2022-09-30T11:29:53.501Z,15.20
2022-09-30T11:32:36.365Z,13.02
2022-09-30T11:35:22.997Z,7.50
2022-09-30T11:38:02.150Z,12.55
2022-09-30T11:41:03.748Z,14.05
2022-09-30T11:43:41.982Z,15.88
2022-09-30T11:46:25.735Z,6.30
2022-09-30T11:49:11.255Z,13.55
2022-09-30T11:52:03.374Z,14.25
2022-09-30T11:54:38.679Z,11.35
2022-09-30T11:59:54.414Z,8.55
2022-09-30T12:02:40.447Z,10.60
2022-09-30T12:05:28.612Z,11.18
2022-09-30T12:08:03.408Z,11.57
2022-09-30T12:10:36.058Z,5.68
2022-09-30T12:13:18.808Z,5.93
2022-09-30T12:15:47.212Z,7.30
2022-09-30T12:18:19.132Z,11.02
2022-09-30T12:20:55.515Z,4.10
2022-09-30T12:23:32.599Z,10.85
2022-09-30T12:26:03.761Z,7.70
2022-09-30T12:28:51.895Z,6.05
2022-09-30T12:31:21.115Z,7.60
2022-09-30T12:34:31.171Z,9.82
2022-09-30T12:37:20.839Z,9.70
2022-09-30T12:40:03.774Z,9.27
2022-09-30T12:42:59.414Z,6.35
2022-09-30T12:45:29.598Z,13.70
2022-09-30T12:47:58.640Z,9.32
2022-09-30T12:50:34.278Z,4.38
2022-09-30T12:53:16.143Z,10.15
2022-09-30T12:55:42.994Z,12.98
2022-09-30T12:58:28.511Z,9.00
2022-09-30T13:01:08.325Z,6.70
2022-09-30T13:03:59.225Z,11.43
2022-09-30T13:06:44.936Z,7.32
2022-09-30T13:09:11.383Z,7.22
2022-09-30T13:11:40.989Z,9.35
2022-09-30T13:14:43.478Z,11.73
2022-09-30T13:17:13.203Z,3.25
2022-09-30T13:19:45.698Z,4.72
2022-09-30T13:22:18.135Z,10.98
2022-09-30T13:25:12.137Z,8.20
2022-09-30T13:27:41.565Z,14.90
2022-09-30T13:30:17.122Z,11.98
2022-09-30T13:32:50.771Z,4.95
2022-09-30T13:35:37.504Z,8.68
2022-09-30T13:38:16.105Z,15.13
2022-09-30T13:41:05.506Z,2.45
2022-09-30T13:43:38.215Z,8.18
2022-09-30T13:46:17.969Z,5.78
2022-09-30T13:49:00.587Z,10.27
2022-09-30T13:51:32.819Z,6.50
2022-09-30T13:54:08.446Z,9.13
2022-09-30T13:56:39.969Z,10.32
2022-09-30T13:59:43.933Z,9.98
2022-09-30T14:02:33.735Z,8.68
2022-09-30T14:05:35.101Z,8.30
2022-09-30T14:08:24.609Z,12.52
2022-09-30T14:11:36.129Z,11.00
2022-09-30T14:14:24.820Z,13.45
2022-09-30T14:17:25.211Z,12.18
2022-09-30T14:19:58.311Z,15.63
2022-09-30T14:22:30.088Z,11.90
2022-09-30T14:24:57.743Z,5.65
2022-09-30T14:27:29.927Z,8.32
2022-09-30T14:30:05.718Z,6.80
2022-09-30T14:33:06.636Z,12.75
2022-09-30T14:35:35.704Z,9.75
2022-09-30T14:38:07.141Z,9.35
2022-09-30T14:40:36.803Z,15.68
2022-09-30T14:43:06.630Z,4.53
2022-09-30T14:45:37.668Z,10.77
2022-09-30T14:48:22.889Z,4.68
2022-09-30T14:51:05.644Z,7.43
2022-09-30T14:53:35.001Z,5.72
2022-09-30T14:56:04.941Z,7.15
2022-09-30T14:58:39.911Z,7.97
2022-09-30T15:01:20.998Z,13.13
2022-09-30T15:03:53.382Z,11.75
2022-09-30T15:06:23.309Z,14.73
2022-09-30T15:08:51.342Z,9.30
2022-09-30T15:11:28.104Z,10.13
2022-09-30T15:14:07.475Z,8.40
2022-09-30T15:16:34.558Z,5.30
2022-09-30T15:19:01.438Z,6.53
2022-09-30T15:21:31.321Z,13.55
2022-09-30T15:24:00.669Z,14.45
2022-09-30T15:26:27.758Z,13.48
2022-09-30T15:28:54.801Z,10.73
2022-09-30T15:31:28.461Z,10.88
2022-09-30T15:34:21.890Z,12.20
2022-09-30T15:37:00.342Z,9.82
2022-09-30T15:39:48.418Z,11.25
2022-09-30T15:42:30.342Z,2.35
2022-09-30T15:44:59.308Z,13.05
2022-09-30T15:47:27.530Z,9.50
2022-09-30T15:49:55.338Z,10.68
2022-09-30T15:52:29.340Z,9.80
2022-09-30T15:54:57.093Z,13.38
2022-09-30T15:57:47.291Z,13.00
2022-09-30T16:00:35.328Z,14.50
2022-09-30T16:03:17.104Z,11.73
2022-09-30T16:05:44.905Z,7.85
2022-09-30T16:08:23.047Z,11.15
2022-09-30T16:10:56.094Z,6.13
2022-09-30T16:13:25.626Z,10.75
2022-09-30T16:15:57.561Z,6.75
2022-09-30T16:18:31.312Z,10.40
2022-09-30T16:21:03.271Z,6.05
2022-09-30T16:23:38.281Z,9.93
2022-09-30T16:26:28.747Z,10.15
2022-09-30T16:28:56.300Z,7.97
2022-09-30T16:31:24.205Z,8.80
2022-09-30T16:33:50.822Z,4.57
2022-09-30T16:36:17.350Z,7.05
2022-09-30T16:38:43.837Z,9.95
2022-09-30T16:41:13.021Z,3.72
2022-09-30T16:43:40.144Z,11.13
2022-09-30T16:46:07.151Z,9.82
2022-09-30T16:48:35.016Z,11.18
2022-09-30T16:51:16.871Z,10.82
2022-09-30T16:53:43.968Z,10.63
2022-09-30T16:56:15.376Z,8.10
2022-09-30T16:58:42.843Z,10.15
2022-09-30T17:01:18.752Z,10.95
2022-09-30T17:03:46.419Z,9.65
2022-09-30T17:06:14.423Z,10.13
2022-09-30T17:08:41.379Z,8.73
2022-09-30T17:11:07.848Z,2.67
2022-09-30T17:13:35.584Z,9.52
2022-09-30T17:16:02.103Z,9.05
2022-09-30T17:18:28.571Z,14.38
2022-09-30T17:20:55.873Z,7.47
2022-09-30T17:23:24.181Z,9.02
2022-09-30T17:25:51.975Z,10.75
2022-09-30T17:28:18.509Z,8.40
2022-09-30T17:30:47.909Z,11.35
2022-09-30T17:33:15.266Z,17.98
2022-09-30T17:35:41.744Z,17.90
2022-09-30T17:38:12.706Z,14.57
2022-09-30T17:40:58.767Z,14.98
2022-09-30T17:43:25.229Z,11.27
2022-09-30T17:45:52.387Z,9.15
2022-09-30T17:48:18.959Z,9.80
2022-09-30T17:50:48.483Z,9.35
2022-09-30T17:53:19.396Z,15.35
2022-09-30T17:55:47.967Z,12.43
2022-09-30T17:58:19.183Z,14.02
2022-09-30T18:00:46.800Z,14.27
2022-09-30T18:03:13.508Z,12.40
2022-09-30T18:05:40.041Z,12.25
2022-09-30T18:08:06.606Z,16.67
2022-09-30T18:10:37.109Z,14.88
2022-09-30T18:13:03.662Z,12.77
2022-09-30T18:15:30.165Z,18.05
2022-09-30T18:17:56.961Z,8.57
2022-09-30T18:20:25.541Z,11.98
2022-09-30T18:22:52.336Z,12.85
2022-09-30T18:25:22.592Z,12.38
2022-09-30T18:27:59.190Z,16.05
2022-09-30T18:30:26.797Z,14.13
2022-09-30T18:32:54.424Z,18.63
2022-09-30T18:35:24.498Z,13.65
2022-09-30T18:37:53.073Z,12.80
2022-09-30T18:40:22.566Z,9.95
2022-09-30T18:42:56.249Z,12.73
2022-09-30T18:45:23.973Z,16.75
2022-09-30T18:47:55.341Z,15.35
2022-09-30T18:50:23.164Z,15.13
2022-09-30T18:52:51.247Z,16.25
2022-09-30T18:55:18.310Z,14.27
2022-09-30T18:57:48.264Z,13.52
2022-09-30T19:00:16.795Z,16.35
2022-09-30T19:02:44.692Z,18.63
2022-09-30T19:05:12.887Z,15.57
2022-09-30T19:07:39.400Z,14.85
2022-09-30T19:10:10.204Z,15.77
2022-09-30T19:12:37.982Z,16.35
2022-09-30T19:15:06.931Z,15.07
2022-09-30T19:17:33.699Z,14.10
2022-09-30T19:20:00.747Z,12.85
2022-09-30T19:22:28.323Z,13.73
2022-09-30T19:24:54.977Z,14.80
2022-09-30T19:27:26.238Z,12.98
2022-09-30T19:29:58.535Z,15.82
2022-09-30T19:32:26.494Z,17.30
2022-09-30T19:35:05.441Z,13.98
2022-09-30T19:37:33.072Z,12.45
2022-09-30T19:40:08.445Z,14.40
2022-09-30T19:42:42.639Z,16.90
2022-09-30T19:45:09.217Z,15.98
2022-09-30T19:47:36.537Z,17.65
2022-09-30T19:50:04.109Z,18.33
2022-09-30T19:52:30.548Z,15.90
2022-09-30T19:55:05.394Z,17.48
2022-09-30T19:57:37.686Z,16.13
2022-09-30T20:00:05.516Z,17.63
2022-09-30T20:02:32.388Z,15.55
2022-09-30T20:05:00.474Z,17.27
2022-09-30T20:07:28.176Z,14.50
2022-09-30T20:09:54.705Z,14.38
2022-09-30T20:12:21.203Z,15.70
2022-09-30T20:15:06.431Z,18.08
2022-09-30T20:17:32.938Z,20.00
2022-09-30T20:20:18.050Z,15.27
2022-09-30T20:22:44.531Z,15.57
2022-09-30T20:25:11.204Z,17.48
2022-09-30T20:27:40.312Z,15.40
2022-09-30T20:30:07.154Z,17.83
2022-09-30T20:32:33.614Z,17.05
2022-09-30T20:35:00.120Z,16.13
2022-09-30T20:37:26.650Z,16.48
2022-09-30T20:39:53.111Z,19.08
2022-09-30T20:42:19.558Z,19.35
2022-09-30T20:44:46.069Z,18.40
2022-09-30T20:47:12.596Z,13.82
2022-09-30T20:49:39.078Z,15.93
2022-09-30T20:52:06.023Z,15.27
2022-09-30T20:54:35.384Z,13.35
2022-09-30T20:57:07.232Z,12.60
2022-09-30T20:59:33.963Z,13.27
2022-09-30T21:02:00.492Z,13.25
2022-09-30T21:04:27.018Z,12.07
2022-09-30T21:06:53.510Z,12.10
2022-09-30T21:09:19.969Z,5.95
2022-09-30T21:11:46.436Z,11.90
2022-09-30T21:14:15.877Z,6.35
2022-09-30T21:16:42.420Z,6.90
2022-09-30T21:19:10.271Z,9.55
2022-09-30T21:21:36.702Z,10.90
2022-09-30T21:24:03.241Z,9.93
2022-09-30T21:26:30.009Z,7.38
2022-09-30T21:28:56.468Z,3.47
2022-09-30T21:31:27.535Z,7.10
2022-09-30T21:33:56.522Z,3.10
2022-09-30T21:36:24.170Z,11.30
2022-09-30T21:38:51.360Z,6.00
2022-09-30T21:41:19.563Z,11.68
2022-09-30T21:43:46.996Z,9.38
2022-09-30T21:46:15.392Z,8.68
2022-09-30T21:48:42.542Z,7.50
2022-09-30T21:51:09.994Z,8.18
2022-09-30T21:53:36.941Z,11.80
2022-09-30T21:56:03.928Z,11.20
2022-09-30T21:58:31.989Z,6.70
2022-09-30T22:01:04.362Z,6.22
2022-09-30T22:03:39.416Z,3.03
2022-09-30T22:06:07.989Z,12.43
2022-09-30T22:08:39.912Z,10.88
2022-09-30T22:11:12.845Z,4.50
2022-09-30T22:13:42.093Z,7.75
2022-09-30T22:16:08.978Z,4.82
2022-09-30T22:18:36.183Z,2.20
2022-09-30T22:21:13.813Z,4.97
2022-09-30T22:23:40.821Z,5.65
2022-09-30T22:26:12.775Z,6.82
2022-09-30T22:28:39.892Z,3.30
2022-09-30T22:31:13.846Z,6.75
2022-09-30T22:33:59.328Z,9.68
2022-09-30T22:36:44.223Z,3.30
2022-09-30T22:39:11.244Z,6.10
2022-09-30T22:41:38.289Z,5.15
2022-09-30T22:44:05.156Z,8.23
2022-09-30T22:46:36.047Z,4.63
2022-09-30T22:49:03.659Z,8.45
2022-09-30T22:51:32.648Z,6.55
2022-09-30T22:54:01.012Z,5.68
2022-09-30T22:56:27.885Z,4.13
2022-09-30T22:58:54.331Z,3.65
2022-09-30T23:01:20.850Z,6.30
2022-09-30T23:03:48.457Z,7.40
2022-09-30T23:06:14.923Z,9.48
2022-09-30T23:08:41.722Z,5.95
2022-09-30T23:11:10.891Z,6.35
2022-09-30T23:13:38.307Z,7.13
2022-09-30T23:16:06.516Z,6.18
2022-09-30T23:18:34.158Z,8.40
2022-09-30T23:21:05.963Z,4.45
2022-09-30T23:23:33.897Z,9.35
2022-09-30T23:26:04.708Z,7.65
2022-09-30T23:28:32.402Z,8.10
2022-09-30T23:31:05.088Z,4.38
2022-09-30T23:33:31.519Z,5.22
2022-09-30T23:36:01.196Z,2.78
2022-09-30T23:38:28.565Z,5.28
2022-09-30T23:41:00.986Z,5.20
2022-09-30T23:43:32.345Z,5.63
2022-09-30T23:45:58.951Z,5.65
2022-09-30T23:48:25.864Z,6.57
2022-09-30T23:50:53.078Z,8.10
2022-09-30T23:53:21.748Z,5.68
2022-09-30T23:55:56.399Z,8.15
2022-09-30T23:58:24.200Z,7.15
